createdAt,value
2022-11-24T00:01:32.693Z,5.67
2022-11-24T00:04:04.612Z,5.73
2022-11-24T00:06:38.594Z,5.70
2022-11-24T00:09:07.768Z,5.74
2022-11-24T00:11:36.940Z,5.75
2022-11-24T00:14:06.770Z,5.81
2022-11-24T00:16:38.300Z,5.80
2022-11-24T00:19:09.625Z,5.88
2022-11-24T00:21:38.670Z,5.80
2022-11-24T00:24:07.779Z,5.86
2022-11-24T00:26:37.887Z,5.89
2022-11-24T00:29:08.219Z,5.91
2022-11-24T00:31:41.590Z,5.95
2022-11-24T00:34:15.064Z,5.86
2022-11-24T00:36:43.884Z,5.93
2022-11-24T00:39:15.206Z,6.04
2022-11-24T00:41:44.147Z,6.08
2022-11-24T00:44:12.632Z,6.14
2022-11-24T00:46:40.752Z,6.14
2022-11-24T00:49:09.817Z,6.17
2022-11-24T00:51:39.118Z,6.15
2022-11-24T00:54:08.796Z,6.04
2022-11-24T00:56:37.711Z,6.04
2022-11-24T00:59:06.892Z,6.19
2022-11-24T01:01:36.234Z,6.23
2022-11-24T01:04:06.187Z,6.23
2022-11-24T01:06:36.121Z,6.23
2022-11-24T01:09:05.555Z,6.17
2022-11-24T01:11:55.218Z,6.20
2022-11-24T01:14:25.156Z,6.11
2022-11-24T01:16:56.662Z,6.28
2022-11-24T01:19:25.705Z,6.30
2022-11-24T01:21:55.171Z,6.43
2022-11-24T01:24:23.693Z,6.30
2022-11-24T01:26:55.223Z,6.42
2022-11-24T01:29:23.791Z,6.39
2022-11-24T01:31:52.859Z,6.30
2022-11-24T01:34:21.788Z,6.34
2022-11-24T01:36:50.793Z,6.28
2022-11-24T01:39:18.643Z,6.30
2022-11-24T01:41:48.699Z,6.34
2022-11-24T01:44:25.093Z,6.37
2022-11-24T01:47:07.924Z,6.46
2022-11-24T01:49:44.087Z,6.41
2022-11-24T01:52:22.291Z,6.41
2022-11-24T01:54:56.725Z,6.47
2022-11-24T01:58:13.356Z,6.47
2022-11-24T02:00:46.934Z,6.46
2022-11-24T02:03:26.885Z,6.49
2022-11-24T02:06:09.638Z,6.63
2022-11-24T02:08:50.283Z,6.58
2022-11-24T02:11:23.031Z,6.56
2022-11-24T02:13:54.597Z,6.50
2022-11-24T02:16:24.244Z,6.52
2022-11-24T02:18:55.673Z,6.54
2022-11-24T02:21:24.751Z,6.45
2022-11-24T02:24:07.729Z,6.47
2022-11-24T02:26:48.840Z,6.62
2022-11-24T02:29:18.152Z,6.52
2022-11-24T02:31:58.295Z,6.56
2022-11-24T02:34:26.712Z,6.60
2022-11-24T02:36:54.597Z,6.70
2022-11-24T02:47:32.296Z,6.35
2022-11-24T02:50:01.383Z,6.33
2022-11-24T02:52:30.381Z,6.44
2022-11-24T02:54:58.256Z,6.51
2022-11-24T02:57:34.977Z,6.52
2022-11-24T03:00:04.308Z,6.60
2022-11-24T03:02:33.275Z,6.49
2022-11-24T03:05:02.431Z,6.61
2022-11-24T03:07:31.462Z,6.58
2022-11-24T03:10:01.123Z,6.68
2022-11-24T03:12:33.098Z,6.75
2022-11-24T03:15:01.361Z,6.67
2022-11-24T03:17:31.146Z,6.78
2022-11-24T03:20:04.804Z,6.76
2022-11-24T03:22:34.589Z,6.73
2022-11-24T03:25:03.418Z,6.78
2022-11-24T03:27:32.976Z,6.69
2022-11-24T03:30:02.271Z,6.69
2022-11-24T03:32:31.297Z,6.70
2022-11-24T03:35:00.676Z,6.68
2022-11-24T03:37:29.269Z,6.67
2022-11-24T03:40:00.905Z,6.77
2022-11-24T03:42:29.280Z,6.82
2022-11-24T03:45:01.640Z,6.80
2022-11-24T03:47:40.392Z,6.77
2022-11-24T03:50:09.998Z,6.77
2022-11-24T03:52:41.348Z,6.84
2022-11-24T03:55:10.449Z,6.81
2022-11-24T03:57:38.280Z,6.86
2022-11-24T04:00:08.427Z,6.76
2022-11-24T04:02:38.284Z,6.77
2022-11-24T04:05:08.053Z,6.79
2022-11-24T04:07:36.416Z,6.84
2022-11-24T04:10:07.468Z,6.87
2022-11-24T04:12:45.131Z,6.93
2022-11-24T04:15:16.517Z,6.93
2022-11-24T04:17:45.092Z,7.02
2022-11-24T04:20:14.689Z,7.08
2022-11-24T04:22:43.766Z,7.14
2022-11-24T04:25:12.812Z,7.16
2022-11-24T04:27:41.605Z,7.18
2022-11-24T04:30:10.874Z,7.16
2022-11-24T04:32:40.763Z,7.09
2022-11-24T04:35:09.721Z,7.07
2022-11-24T04:37:39.711Z,7.14
2022-11-24T04:40:10.544Z,7.10
2022-11-24T04:42:39.629Z,7.14
2022-11-24T04:45:08.393Z,7.19
2022-11-24T04:47:36.301Z,7.14
2022-11-24T04:50:08.089Z,7.14
2022-11-24T04:52:37.300Z,7.26
2022-11-24T04:55:07.288Z,7.23
2022-11-24T04:57:36.281Z,7.31
2022-11-24T05:00:07.188Z,7.24
2022-11-24T05:02:37.221Z,7.17
2022-11-24T05:05:08.244Z,7.21
2022-11-24T05:07:38.217Z,7.26
2022-11-24T05:10:25.760Z,7.17
2022-11-24T05:13:02.419Z,7.06
2022-11-24T05:15:30.253Z,7.08
2022-11-24T05:18:01.425Z,7.17
2022-11-24T05:20:30.237Z,7.14
2022-11-24T05:23:09.146Z,7.17
2022-11-24T05:25:44.836Z,7.20
2022-11-24T05:28:17.908Z,7.21
2022-11-24T05:30:46.453Z,7.15
2022-11-24T05:33:19.349Z,7.07
2022-11-24T05:35:48.460Z,7.26
2022-11-24T05:38:18.879Z,7.21
2022-11-24T05:40:47.199Z,7.23
2022-11-24T05:43:20.075Z,7.19
2022-11-24T05:45:48.275Z,7.27
2022-11-24T05:48:17.292Z,7.26
2022-11-24T05:50:55.944Z,7.34
2022-11-24T05:53:25.898Z,7.39
2022-11-24T05:55:54.694Z,7.23
2022-11-24T05:58:23.648Z,7.27
2022-11-24T06:00:53.842Z,7.30
2022-11-24T06:03:22.217Z,7.33
2022-11-24T06:05:51.016Z,7.42
2022-11-24T06:08:25.592Z,7.35
2022-11-24T06:11:18.393Z,7.32
2022-11-24T06:13:49.048Z,7.41
2022-11-24T06:16:17.819Z,7.30
2022-11-24T06:18:46.814Z,7.41
2022-11-24T06:21:15.168Z,7.41
2022-11-24T06:23:47.482Z,7.51
2022-11-24T06:26:21.892Z,7.43
2022-11-24T06:28:52.362Z,7.40
2022-11-24T06:31:21.464Z,7.52
2022-11-24T06:33:54.721Z,7.49
2022-11-24T06:36:23.778Z,7.50
2022-11-24T06:38:52.226Z,7.62
2022-11-24T06:41:22.740Z,7.57
2022-11-24T06:43:51.712Z,7.60
2022-11-24T06:46:21.048Z,7.80
2022-11-24T06:48:53.788Z,7.68
2022-11-24T06:51:22.288Z,7.61
2022-11-24T06:53:51.716Z,7.77
2022-11-24T06:56:23.017Z,7.92
2022-11-24T06:58:54.025Z,7.91
2022-11-24T07:01:26.062Z,8.05
2022-11-24T07:03:57.129Z,8.11
2022-11-24T07:06:26.582Z,8.10
2022-11-24T07:08:57.098Z,8.24
2022-11-24T07:11:25.341Z,8.22
2022-11-24T07:14:04.073Z,8.14
2022-11-24T07:16:44.195Z,8.21
2022-11-24T07:19:13.307Z,8.32
2022-11-24T07:21:42.466Z,8.32
2022-11-24T07:24:10.270Z,8.42
2022-11-24T07:26:40.417Z,8.43
2022-11-24T07:29:09.114Z,8.46
2022-11-24T07:31:37.188Z,8.56
2022-11-24T07:34:05.572Z,8.57
2022-11-24T07:36:34.820Z,8.71
2022-11-24T07:39:03.237Z,8.66
2022-11-24T07:41:32.330Z,8.44
2022-11-24T07:44:02.728Z,8.54
2022-11-24T07:46:31.195Z,8.57
2022-11-24T07:49:02.742Z,8.67
2022-11-24T07:51:32.018Z,8.81
2022-11-24T07:54:03.065Z,8.92
2022-11-24T07:56:32.880Z,8.92
2022-11-24T07:59:01.632Z,8.99
2022-11-24T08:01:33.014Z,9.06
2022-11-24T08:04:02.251Z,9.03
2022-11-24T08:06:39.626Z,9.06
2022-11-24T08:09:11.111Z,8.99
2022-11-24T08:11:40.163Z,9.04
2022-11-24T08:14:08.220Z,9.10
2022-11-24T08:16:37.407Z,9.20
2022-11-24T08:19:06.404Z,9.30
2022-11-24T08:21:34.127Z,9.44
2022-11-24T08:24:06.018Z,9.48
2022-11-24T08:26:34.872Z,9.49
2022-11-24T08:29:03.175Z,9.70
2022-11-24T08:31:36.285Z,9.77
2022-11-24T08:34:05.198Z,10.00
2022-11-24T08:36:34.163Z,10.08
2022-11-24T08:39:03.330Z,10.07
2022-11-24T08:41:33.419Z,10.08
2022-11-24T08:44:01.670Z,10.23
2022-11-24T08:46:31.137Z,10.25
2022-11-24T08:48:59.221Z,10.29
2022-11-24T08:51:28.789Z,10.33
2022-11-24T08:54:21.841Z,10.47
2022-11-24T08:56:51.501Z,10.71
2022-11-24T08:59:19.227Z,10.57
2022-11-24T09:01:48.095Z,10.60
2022-11-24T09:04:16.221Z,10.68
2022-11-24T09:06:44.147Z,10.50
2022-11-24T09:09:14.633Z,10.65
2022-11-24T09:11:43.177Z,10.63
2022-11-24T09:18:25.241Z,10.39
2022-11-24T09:21:11.859Z,10.48
2022-11-24T09:23:40.121Z,10.40
2022-11-24T09:26:13.313Z,10.40
2022-11-24T09:28:43.115Z,10.58
2022-11-24T09:31:13.942Z,10.50
2022-11-24T09:33:46.974Z,10.65
2022-11-24T09:36:15.307Z,10.56
2022-11-24T09:38:44.190Z,10.55
2022-11-24T09:41:17.831Z,10.58
2022-11-24T09:44:06.525Z,10.68
2022-11-24T09:46:59.919Z,10.86
2022-11-24T09:49:38.492Z,10.89
2022-11-24T09:52:15.003Z,10.75
2022-11-24T09:54:57.868Z,10.62
2022-11-24T09:57:37.426Z,10.67
2022-11-24T10:00:13.766Z,10.73
2022-11-24T10:02:44.688Z,10.83
2022-11-24T10:05:15.616Z,10.78
2022-11-24T10:08:35.701Z,10.76
2022-11-24T10:11:11.653Z,10.74
2022-11-24T10:14:04.210Z,10.77
2022-11-24T10:16:51.510Z,10.69
2022-11-24T10:19:52.325Z,10.74
2022-11-24T10:22:50.537Z,10.65
2022-11-24T10:25:21.446Z,10.79
2022-11-24T10:28:03.979Z,10.87
2022-11-24T10:30:32.971Z,10.76
2022-11-24T10:33:28.808Z,10.87
2022-11-24T10:36:07.919Z,10.90
2022-11-24T10:39:25.610Z,10.98
2022-11-24T10:42:30.038Z,10.99
2022-11-24T10:45:18.550Z,11.04
2022-11-24T10:47:47.257Z,11.11
2022-11-24T10:50:28.762Z,11.17
2022-11-24T10:53:17.802Z,11.16
2022-11-24T10:56:02.112Z,11.30
2022-11-24T10:58:36.072Z,11.34
2022-11-24T11:01:17.338Z,11.28
2022-11-24T11:03:56.608Z,11.28
2022-11-24T11:06:29.715Z,11.31
2022-11-24T11:09:07.693Z,11.37
2022-11-24T11:11:42.062Z,11.35
2022-11-24T11:14:13.185Z,11.19
2022-11-24T11:16:53.751Z,11.09
2022-11-24T11:19:55.531Z,11.29
2022-11-24T11:22:30.555Z,11.32
2022-11-24T11:25:23.402Z,11.30
2022-11-24T11:28:15.027Z,11.34
2022-11-24T11:31:17.965Z,11.38
2022-11-24T11:34:04.761Z,11.41
2022-11-24T11:36:41.859Z,11.27
2022-11-24T11:39:23.304Z,11.30
2022-11-24T11:41:58.848Z,11.16
2022-11-24T11:44:56.910Z,11.34
2022-11-24T11:47:40.309Z,11.46
2022-11-24T11:50:17.701Z,11.44
2022-11-24T11:53:05.905Z,11.40
2022-11-24T11:55:57.022Z,11.33
2022-11-24T11:58:34.141Z,11.38
2022-11-24T12:01:39.228Z,11.35
2022-11-24T12:04:28.424Z,11.37
2022-11-24T12:07:01.983Z,11.45
2022-11-24T12:10:12.596Z,11.42
2022-11-24T12:13:11.004Z,11.54
2022-11-24T12:15:47.977Z,11.50
2022-11-24T12:19:02.271Z,11.50
2022-11-24T12:22:01.513Z,11.43
2022-11-24T12:24:54.636Z,11.50
2022-11-24T12:27:55.790Z,11.56
2022-11-24T12:30:25.068Z,11.55
2022-11-24T12:33:15.664Z,11.49
2022-11-24T12:35:55.130Z,11.39
2022-11-24T12:39:02.817Z,11.44
2022-11-24T12:42:09.610Z,11.48
2022-11-24T12:45:09.159Z,11.46
2022-11-24T12:47:55.483Z,11.40
2022-11-24T12:50:29.328Z,11.43
2022-11-24T12:53:22.435Z,11.41
2022-11-24T12:55:51.776Z,11.46
2022-11-24T12:58:58.922Z,11.45
2022-11-24T13:01:50.326Z,11.46
2022-11-24T13:05:08.713Z,11.48
2022-11-24T13:08:03.070Z,11.44
2022-11-24T13:10:55.953Z,11.44
2022-11-24T13:14:12.854Z,11.39
2022-11-24T13:17:21.716Z,11.44
2022-11-24T13:19:41.042Z,11.42
2022-11-24T13:22:23.428Z,11.44
2022-11-24T13:25:31.430Z,11.37
2022-11-24T13:28:09.328Z,11.41
2022-11-24T13:30:37.885Z,11.30
2022-11-24T13:33:17.101Z,11.28
2022-11-24T13:36:04.352Z,11.33
2022-11-24T13:38:44.700Z,11.36
2022-11-24T13:41:31.893Z,11.39
2022-11-24T13:44:23.944Z,11.45
2022-11-24T13:47:06.670Z,11.42
2022-11-24T13:49:40.809Z,11.42
2022-11-24T13:52:46.462Z,11.42
2022-11-24T13:55:17.150Z,11.39
2022-11-24T13:57:51.639Z,11.45
2022-11-24T14:00:35.411Z,11.43
2022-11-24T14:03:19.489Z,11.42
2022-11-24T14:05:52.131Z,11.44
2022-11-24T14:08:25.651Z,11.43
2022-11-24T14:10:58.122Z,11.47
2022-11-24T14:13:31.729Z,11.37
2022-11-24T14:16:06.938Z,11.39
2022-11-24T14:18:36.850Z,11.35
2022-11-24T14:21:38.533Z,11.30
2022-11-24T14:24:24.791Z,11.30
2022-11-24T14:26:53.979Z,11.34
2022-11-24T14:29:24.843Z,11.31
2022-11-24T14:31:59.322Z,11.32
2022-11-24T14:34:32.311Z,11.25
2022-11-24T14:37:02.069Z,11.30
2022-11-24T14:39:41.390Z,11.33
2022-11-24T14:42:27.935Z,11.34
2022-11-24T14:44:59.502Z,11.34
2022-11-24T14:47:45.377Z,11.37
2022-11-24T14:50:23.011Z,11.31
2022-11-24T14:52:57.043Z,11.23
2022-11-24T14:55:32.110Z,11.17
2022-11-24T14:58:01.220Z,11.13
2022-11-24T15:00:33.758Z,11.14
2022-11-24T15:03:04.423Z,11.19
2022-11-24T15:05:59.615Z,11.18
2022-11-24T15:08:43.005Z,11.10
2022-11-24T15:11:11.116Z,11.13
2022-11-24T15:13:40.627Z,11.11
2022-11-24T15:16:22.969Z,11.10
2022-11-24T15:19:02.682Z,11.14
2022-11-24T15:21:37.511Z,11.14
2022-11-24T15:24:19.800Z,11.11
2022-11-24T15:26:47.996Z,11.13
2022-11-24T15:29:16.847Z,11.07
2022-11-24T15:31:49.402Z,11.03
2022-11-24T15:34:22.596Z,10.92
2022-11-24T15:36:50.971Z,10.94
2022-11-24T15:39:20.370Z,10.90
2022-11-24T15:41:50.183Z,10.87
2022-11-24T15:44:25.966Z,10.86
2022-11-24T15:46:55.542Z,10.85
2022-11-24T15:49:23.977Z,10.93
2022-11-24T15:51:53.169Z,10.95
2022-11-24T15:54:22.129Z,10.97
2022-11-24T15:56:50.971Z,10.98
2022-11-24T15:59:25.589Z,10.98
2022-11-24T16:01:54.070Z,10.98
2022-11-24T16:04:23.320Z,11.03
2022-11-24T16:06:50.993Z,11.04
2022-11-24T16:09:22.021Z,11.04
2022-11-24T16:11:51.957Z,10.97
2022-11-24T16:14:21.487Z,10.80
2022-11-24T16:16:50.132Z,10.81
2022-11-24T16:19:19.150Z,10.82
2022-11-24T16:21:48.836Z,10.89
2022-11-24T16:24:18.865Z,10.82
2022-11-24T16:26:47.008Z,10.86
2022-11-24T16:29:17.053Z,10.83
2022-11-24T16:31:47.457Z,10.91
2022-11-24T16:34:16.798Z,10.97
2022-11-24T16:36:44.940Z,11.00
2022-11-24T16:39:13.780Z,11.04
2022-11-24T16:41:42.876Z,11.03
2022-11-24T16:44:11.002Z,11.13
2022-11-24T16:46:40.058Z,11.10
2022-11-24T16:49:09.293Z,11.00
2022-11-24T16:51:38.731Z,10.99
2022-11-24T16:54:10.056Z,10.83
2022-11-24T16:56:39.065Z,10.64
2022-11-24T16:59:08.304Z,10.71
2022-11-24T17:01:37.514Z,10.83
2022-11-24T17:04:12.603Z,10.81
2022-11-24T17:06:41.061Z,10.85
2022-11-24T17:09:09.553Z,10.88
2022-11-24T17:11:38.028Z,10.93
2022-11-24T17:14:10.783Z,10.91
2022-11-24T17:16:40.155Z,10.96
2022-11-24T17:19:09.032Z,10.96
2022-11-24T17:21:37.095Z,10.92
2022-11-24T17:24:08.696Z,10.86
2022-11-24T17:26:36.986Z,10.88
2022-11-24T17:29:05.648Z,10.94
2022-11-24T17:31:36.441Z,10.93
2022-11-24T17:34:06.851Z,10.95
2022-11-24T17:36:36.025Z,10.93
2022-11-24T17:39:05.885Z,11.01
2022-11-24T17:41:36.138Z,10.94
2022-11-24T17:44:04.802Z,10.94
2022-11-24T17:46:35.815Z,10.98
2022-11-24T17:49:07.451Z,10.96
2022-11-24T17:51:35.904Z,10.90
2022-11-24T17:54:31.167Z,10.88
2022-11-24T17:56:53.745Z,10.86
2022-11-24T17:59:22.067Z,10.81
2022-11-24T18:01:52.967Z,10.81
2022-11-24T18:04:23.032Z,10.92
2022-11-24T18:06:54.728Z,10.90
2022-11-24T18:09:23.130Z,10.77
2022-11-24T18:11:52.297Z,10.82
2022-11-24T18:14:23.043Z,10.75
2022-11-24T18:16:52.199Z,10.80
2022-11-24T18:19:22.071Z,10.63
2022-11-24T18:21:51.370Z,10.74
2022-11-24T18:24:24.122Z,10.78
2022-11-24T18:26:52.972Z,10.76
2022-11-24T18:29:24.974Z,10.69
2022-11-24T18:31:53.087Z,10.76
2022-11-24T18:34:24.853Z,10.74
2022-11-24T18:36:53.483Z,10.62
2022-11-24T18:39:22.318Z,10.50
2022-11-24T18:41:50.009Z,10.48
2022-11-24T18:44:21.159Z,10.54
2022-11-24T18:46:49.932Z,10.52
2022-11-24T18:49:18.667Z,10.51
2022-11-24T18:51:48.461Z,10.40
2022-11-24T18:54:17.525Z,10.40
2022-11-24T18:56:45.922Z,10.38
2022-11-24T18:59:15.085Z,10.37
2022-11-24T19:01:42.985Z,10.44
2022-11-24T19:04:13.090Z,10.41
2022-11-24T19:06:41.153Z,10.35
2022-11-24T19:09:20.732Z,10.26
2022-11-24T19:11:49.055Z,10.30
2022-11-24T19:14:19.360Z,10.29
2022-11-24T19:16:49.077Z,10.34
2022-11-24T19:19:18.386Z,10.30
2022-11-24T19:21:49.975Z,10.27
2022-11-24T19:24:18.911Z,10.35
2022-11-24T19:26:47.769Z,10.34
2022-11-24T19:29:16.091Z,10.21
2022-11-24T19:31:45.242Z,10.19
2022-11-24T19:34:15.724Z,10.20
2022-11-24T19:36:44.863Z,10.23
2022-11-24T19:39:17.591Z,10.17
2022-11-24T19:41:46.637Z,10.18
2022-11-24T19:44:14.980Z,10.13
2022-11-24T19:46:44.355Z,10.06
2022-11-24T19:49:13.888Z,9.96
2022-11-24T19:51:43.061Z,10.06
2022-11-24T19:54:13.533Z,10.01
2022-11-24T19:56:43.108Z,9.85
2022-11-24T19:59:13.905Z,9.89
2022-11-24T20:01:43.021Z,9.79
2022-11-24T20:04:15.383Z,9.88
2022-11-24T20:06:47.112Z,9.79
2022-11-24T20:09:18.447Z,9.81
2022-11-24T20:11:49.029Z,9.79
2022-11-24T20:14:19.223Z,9.82
2022-11-24T20:16:49.445Z,9.79
2022-11-24T20:19:18.808Z,9.82
2022-11-24T20:21:50.715Z,9.86
2022-11-24T20:24:24.940Z,9.72
2022-11-24T20:26:58.492Z,9.78
2022-11-24T20:29:28.765Z,9.82
2022-11-24T20:31:58.522Z,9.76
2022-11-24T20:34:27.691Z,9.72
2022-11-24T20:36:56.815Z,9.59
2022-11-24T20:39:28.819Z,9.57
2022-11-24T20:41:57.943Z,9.69
2022-11-24T20:44:28.146Z,9.56
2022-11-24T20:46:59.908Z,9.55
2022-11-24T20:49:29.078Z,9.63
2022-11-24T20:51:58.016Z,9.66
2022-11-24T20:54:26.065Z,9.56
2022-11-24T20:56:55.703Z,9.56
2022-11-24T20:59:25.095Z,9.47
2022-11-24T21:01:55.977Z,9.49
2022-11-24T21:04:27.385Z,9.47
2022-11-24T21:06:56.604Z,9.35
2022-11-24T21:09:27.904Z,9.33
2022-11-24T21:11:56.070Z,9.41
2022-11-24T21:14:25.161Z,9.37
2022-11-24T21:16:53.095Z,9.40
2022-11-24T21:19:24.128Z,9.43
2022-11-24T21:21:51.999Z,9.31
2022-11-24T21:24:23.746Z,9.41
2022-11-24T21:26:53.353Z,9.26
2022-11-24T21:29:25.853Z,9.37
2022-11-24T21:31:57.021Z,9.38
2022-11-24T21:34:26.314Z,9.36
2022-11-24T21:36:54.902Z,9.45
2022-11-24T21:39:23.891Z,9.20
2022-11-24T21:41:57.142Z,9.21
2022-11-24T21:44:26.162Z,9.30
2022-11-24T21:46:56.121Z,9.27
2022-11-24T21:49:25.068Z,9.28
2022-11-24T21:51:57.739Z,9.29
2022-11-24T21:54:26.610Z,9.25
2022-11-24T21:56:56.140Z,9.32
2022-11-24T21:59:24.953Z,9.19
2022-11-24T22:01:53.860Z,9.17
2022-11-24T22:04:26.995Z,9.15
2022-11-24T22:06:56.659Z,9.24
2022-11-24T22:09:25.108Z,9.24
2022-11-24T22:11:54.917Z,9.27
2022-11-24T22:14:23.210Z,9.26
2022-11-24T22:16:54.197Z,9.27
2022-11-24T22:19:23.220Z,9.24
2022-11-24T22:21:51.028Z,9.29
2022-11-24T22:24:24.339Z,9.22
2022-11-24T22:26:56.341Z,9.30
2022-11-24T22:29:24.977Z,9.16
2022-11-24T22:31:54.490Z,9.12
2022-11-24T22:34:24.537Z,9.20
2022-11-24T22:36:54.470Z,9.25
2022-11-24T22:39:22.938Z,9.21
2022-11-24T22:41:51.012Z,9.17
2022-11-24T22:44:22.764Z,9.23
2022-11-24T22:46:51.057Z,9.27
2022-11-24T22:49:19.794Z,9.22
2022-11-24T22:51:47.957Z,9.24
2022-11-24T22:54:15.964Z,9.14
2022-11-24T22:56:44.753Z,9.12
2022-11-24T22:59:12.973Z,8.96
2022-11-24T23:01:42.362Z,8.98
2022-11-24T23:04:11.012Z,8.99
2022-11-24T23:06:42.051Z,9.10
2022-11-24T23:09:16.417Z,9.05
2022-11-24T23:11:48.573Z,9.04
2022-11-24T23:14:19.312Z,9.11
2022-11-24T23:16:46.942Z,9.05
2022-11-24T23:19:15.843Z,9.03
2022-11-24T23:21:43.897Z,9.01
2022-11-24T23:24:12.924Z,9.03
2022-11-24T23:26:43.103Z,9.11
2022-11-24T23:29:17.000Z,9.17
2022-11-24T23:31:44.948Z,9.07
2022-11-24T23:34:13.980Z,9.06
2022-11-24T23:36:41.890Z,9.05
2022-11-24T23:39:12.889Z,8.99
2022-11-24T23:41:41.926Z,9.00
2022-11-24T23:44:09.871Z,9.09
2022-11-24T23:46:40.607Z,9.00
2022-11-24T23:49:08.973Z,9.05
2022-11-24T23:51:42.183Z,9.07
2022-11-24T23:56:58.891Z,9.02
2022-11-24T23:59:27.173Z,9.06
